Weather at Concord-Padgett Regional Airport

Public forecast

Using degrees Fahrenheit for public forecast. Weather courtesy of forecast.io.

Current aviation weather report (METAR) for Concord-Padgett Regional Airport

Retrieved 2021/01/25 06:35 UTC (0 seconds ago):

KJQF 250635Z AUTO 22005KT 10SM OVC026 08/01 A3011 RMK AO2

Closest aviation forecast (TAF) to Concord-Padgett Regional Airport

Closest forecast is Charlotte Douglas International Airport, 15.5 nm (28.7 km) SW. Retrieved 2021/01/25 06:34 UTC (0 seconds ago):

TAF KCLT 250532Z 2506/2612 20003KT P6SM VCSH OVC025 FM251200 16003KT 5SM -RA OVC015 FM251500 14003KT 2SM -RA BR OVC007 FM251800 16005KT 1SM BR VCSH OVC004 PROB30 2519/2601 2SM -SHRA BR FM260200 19006KT 4SM BR VCSH OVC003 WS020/22030KT